createdAt,value
2019-05-29T00:00:32.680Z,9.90
2019-05-29T00:03:06.153Z,10.67
2019-05-29T00:05:36.387Z,10.60
2019-05-29T00:08:08.584Z,10.90
2019-05-29T00:10:39.623Z,10.40
2019-05-29T00:13:10.753Z,13.93
2019-05-29T00:15:44.627Z,10.43
2019-05-29T00:18:17.000Z,9.93
2019-05-29T00:20:51.494Z,12.03
2019-05-29T00:23:23.865Z,11.85
2019-05-29T00:25:54.980Z,10.77
2019-05-29T00:28:26.381Z,11.63
2019-05-29T00:31:00.855Z,11.70
2019-05-29T00:33:31.858Z,11.63
2019-05-29T00:36:01.844Z,11.33
2019-05-29T00:38:33.696Z,13.40
2019-05-29T00:41:06.759Z,11.63
2019-05-29T00:43:36.888Z,10.10
2019-05-29T00:46:07.949Z,10.70
2019-05-29T00:48:41.024Z,10.53
2019-05-29T00:51:12.998Z,12.67
2019-05-29T00:53:43.289Z,10.17
2019-05-29T00:56:15.272Z,12.65
2019-05-29T00:58:46.620Z,12.50
2019-05-29T01:01:17.796Z,11.20
2019-05-29T01:03:47.751Z,10.00
2019-05-29T01:06:20.245Z,14.10
2019-05-29T01:08:52.834Z,10.32
2019-05-29T01:11:25.532Z,10.13
2019-05-29T01:13:56.492Z,9.40
2019-05-29T01:16:31.172Z,9.87
2019-05-29T01:19:03.842Z,11.53
2019-05-29T01:21:35.284Z,10.40
2019-05-29T01:24:08.859Z,11.07
2019-05-29T01:26:38.934Z,9.33
2019-05-29T01:29:12.966Z,8.60
2019-05-29T01:31:45.168Z,9.07
2019-05-29T01:34:17.651Z,7.53
2019-05-29T01:36:48.649Z,8.07
2019-05-29T01:39:19.856Z,14.37
2019-05-29T01:41:51.803Z,9.93
2019-05-29T01:44:23.712Z,7.10
2019-05-29T01:46:56.695Z,12.20
2019-05-29T01:49:29.535Z,8.40
2019-05-29T01:52:02.735Z,9.50
2019-05-29T01:54:35.777Z,8.73
2019-05-29T01:57:10.313Z,9.97
2019-05-29T01:59:41.286Z,9.63
2019-05-29T02:02:13.568Z,9.70
2019-05-29T02:04:45.884Z,12.57
2019-05-29T02:07:18.122Z,7.60
2019-05-29T02:09:49.103Z,8.20
2019-05-29T02:12:24.228Z,10.10
2019-05-29T02:14:55.680Z,13.10
2019-05-29T02:17:28.041Z,14.33
2019-05-29T02:20:00.638Z,8.27
2019-05-29T02:22:31.975Z,9.73
2019-05-29T02:25:05.186Z,9.40
2019-05-29T02:27:39.470Z,12.70
2019-05-29T02:30:31.578Z,10.00
2019-05-29T02:33:04.650Z,10.17
2019-05-29T02:35:34.456Z,8.37
2019-05-29T02:38:08.364Z,12.93
2019-05-29T02:40:43.283Z,10.03
2019-05-29T02:43:15.866Z,10.90
2019-05-29T02:45:54.223Z,9.20
2019-05-29T02:48:18.641Z,12.30
2019-05-29T02:50:49.803Z,9.30
2019-05-29T02:53:22.105Z,10.33
2019-05-29T02:55:52.378Z,13.23
2019-05-29T02:58:24.052Z,12.47
2019-05-29T03:00:57.930Z,12.83
2019-05-29T03:03:33.188Z,14.33
2019-05-29T03:06:01.116Z,12.67
2019-05-29T03:08:34.328Z,13.73
2019-05-29T03:11:05.732Z,11.20
2019-05-29T03:13:41.967Z,11.60
2019-05-29T03:16:12.930Z,10.32
2019-05-29T03:18:45.897Z,10.37
2019-05-29T03:21:15.168Z,15.97
2019-05-29T03:23:47.609Z,12.13
2019-05-29T03:26:18.553Z,19.00
2019-05-29T03:28:51.822Z,11.80
2019-05-29T03:31:28.345Z,11.60
2019-05-29T03:33:59.232Z,14.67
2019-05-29T03:36:39.306Z,12.53
2019-05-29T03:39:11.434Z,11.67
2019-05-29T03:41:42.508Z,13.83
2019-05-29T03:44:14.944Z,15.73
2019-05-29T03:46:46.554Z,12.87
2019-05-29T03:49:17.600Z,11.23
2019-05-29T03:51:51.082Z,15.23
2019-05-29T03:54:26.598Z,13.00
2019-05-29T03:57:17.433Z,23.33
2019-05-29T03:59:48.406Z,18.17
2019-05-29T04:02:18.444Z,15.43
2019-05-29T04:04:49.481Z,15.90
2019-05-29T04:07:21.945Z,15.23
2019-05-29T04:09:55.472Z,17.43
2019-05-29T04:12:29.350Z,16.93
2019-05-29T04:15:01.854Z,12.50
2019-05-29T04:17:35.670Z,16.67
2019-05-29T04:20:08.803Z,16.63
2019-05-29T04:22:48.117Z,15.00
2019-05-29T04:25:22.582Z,17.00
2019-05-29T04:27:56.530Z,16.30
2019-05-29T04:30:30.008Z,19.20
2019-05-29T04:33:01.895Z,18.37
2019-05-29T04:35:32.578Z,16.47
2019-05-29T04:38:03.815Z,31.47
2019-05-29T04:40:37.288Z,17.37
2019-05-29T04:43:09.608Z,17.87
2019-05-29T04:45:40.916Z,16.03
2019-05-29T04:48:10.952Z,17.77
2019-05-29T04:50:43.552Z,27.30
2019-05-29T04:53:14.905Z,23.60
2019-05-29T04:55:47.244Z,21.37
2019-05-29T04:58:20.331Z,18.13
2019-05-29T05:00:58.926Z,20.73
2019-05-29T05:03:28.977Z,17.13
2019-05-29T05:06:01.436Z,18.53
2019-05-29T05:08:51.902Z,17.07
2019-05-29T05:11:26.194Z,14.58
2019-05-29T05:13:56.281Z,16.70
2019-05-29T05:16:26.373Z,16.77
2019-05-29T05:18:57.808Z,27.83
2019-05-29T05:21:29.868Z,16.80
2019-05-29T05:24:02.227Z,15.70
2019-05-29T05:26:34.148Z,18.43
2019-05-29T05:29:05.290Z,13.60
2019-05-29T05:31:36.409Z,15.07
2019-05-29T05:34:06.735Z,12.57
2019-05-29T05:36:39.318Z,9.60
2019-05-29T05:39:11.997Z,14.03
2019-05-29T05:41:44.362Z,14.10
2019-05-29T05:44:17.160Z,10.23
2019-05-29T05:46:51.224Z,15.00
2019-05-29T05:49:22.427Z,11.43
2019-05-29T05:51:52.615Z,11.10
2019-05-29T05:57:01.564Z,11.73
2019-05-29T05:59:33.609Z,7.47
2019-05-29T06:02:04.671Z,6.50
2019-05-29T06:04:35.814Z,8.57
2019-05-29T06:07:11.106Z,15.27
2019-05-29T06:09:42.511Z,9.17
2019-05-29T06:12:15.031Z,12.43
2019-05-29T06:14:48.989Z,8.33
2019-05-29T06:17:21.980Z,9.45
2019-05-29T06:19:54.696Z,8.23
2019-05-29T06:22:29.704Z,7.37
2019-05-29T06:24:59.762Z,11.47
2019-05-29T06:27:31.769Z,10.17
2019-05-29T06:30:04.590Z,8.63
2019-05-29T06:32:35.640Z,6.97
2019-05-29T06:35:08.749Z,7.73
2019-05-29T06:37:39.602Z,21.87
2019-05-29T06:40:17.215Z,9.60
2019-05-29T06:42:47.321Z,10.08
2019-05-29T06:45:21.523Z,5.62
2019-05-29T06:47:54.256Z,7.50
2019-05-29T06:50:25.230Z,10.27
2019-05-29T06:52:56.334Z,9.90
2019-05-29T06:55:26.476Z,8.73
2019-05-29T06:57:57.327Z,10.63
2019-05-29T07:00:48.248Z,11.22
2019-05-29T07:03:19.247Z,12.27
2019-05-29T07:05:53.064Z,8.50
2019-05-29T07:08:38.097Z,9.38
2019-05-29T07:10:58.082Z,9.47
2019-05-29T07:13:29.112Z,13.07
2019-05-29T07:16:00.633Z,11.07
2019-05-29T07:18:31.897Z,10.17
2019-05-29T07:23:36.830Z,7.17
2019-05-29T07:26:08.846Z,10.87
2019-05-29T07:28:58.828Z,5.87
2019-05-29T07:31:15.258Z,8.77
2019-05-29T07:33:48.407Z,6.60
2019-05-29T07:36:22.135Z,7.70
2019-05-29T07:41:28.269Z,7.80
2019-05-29T07:43:59.362Z,10.10
2019-05-29T07:46:29.467Z,11.37
2019-05-29T07:49:02.877Z,6.30
2019-05-29T07:51:35.220Z,9.50
2019-05-29T07:54:07.125Z,6.47
2019-05-29T07:56:40.369Z,10.03
2019-05-29T07:59:17.058Z,11.20
2019-05-29T08:01:49.259Z,9.90
2019-05-29T08:04:21.754Z,4.35
2019-05-29T08:06:54.522Z,7.30
2019-05-29T08:09:25.315Z,11.25
2019-05-29T08:11:58.137Z,6.67
2019-05-29T08:14:30.852Z,7.87
2019-05-29T08:17:03.997Z,7.17
2019-05-29T08:19:35.042Z,6.00
2019-05-29T08:22:08.512Z,9.60
2019-05-29T08:27:12.364Z,6.13
2019-05-29T08:29:46.997Z,7.23
2019-05-29T08:32:16.546Z,8.53
2019-05-29T08:34:51.230Z,4.90
2019-05-29T08:37:24.986Z,11.35
2019-05-29T08:39:55.505Z,9.60
2019-05-29T08:42:27.697Z,6.23
2019-05-29T08:47:31.131Z,5.90
2019-05-29T08:50:17.207Z,5.03
2019-05-29T08:55:09.174Z,5.53
2019-05-29T08:57:39.433Z,5.27
2019-05-29T09:00:12.796Z,4.93
2019-05-29T09:05:35.783Z,9.60
2019-05-29T09:08:06.700Z,15.47
2019-05-29T09:10:41.275Z,7.33
2019-05-29T09:13:13.144Z,8.35
2019-05-29T09:15:44.131Z,3.37
2019-05-29T09:18:34.786Z,3.93
2019-05-29T09:21:05.317Z,7.63
2019-05-29T09:23:38.709Z,10.20
2019-05-29T09:26:17.647Z,5.80
2019-05-29T09:28:48.215Z,8.53
2019-05-29T09:31:18.631Z,4.20
2019-05-29T09:33:52.621Z,4.00
2019-05-29T09:36:29.172Z,8.53
2019-05-29T09:39:04.298Z,7.20
2019-05-29T09:41:34.574Z,3.97
2019-05-29T09:44:05.500Z,8.27
2019-05-29T09:46:38.276Z,7.90
2019-05-29T09:49:10.977Z,6.67
2019-05-29T09:51:42.591Z,10.20
2019-05-29T09:54:15.213Z,5.50
2019-05-29T09:56:47.571Z,4.70
2019-05-29T09:59:20.549Z,7.80
2019-05-29T10:01:54.264Z,4.07
2019-05-29T10:04:27.376Z,6.93
2019-05-29T10:06:59.800Z,6.60
2019-05-29T10:09:31.022Z,6.10
2019-05-29T10:12:06.349Z,6.20
2019-05-29T10:14:34.407Z,7.70
2019-05-29T10:17:11.290Z,5.73
2019-05-29T10:19:38.592Z,5.00
2019-05-29T10:22:09.758Z,5.37
2019-05-29T10:24:41.302Z,4.43
2019-05-29T10:27:12.844Z,6.70
2019-05-29T10:29:44.581Z,7.10
2019-05-29T10:35:08.363Z,4.33
2019-05-29T10:37:40.923Z,7.23
2019-05-29T10:40:13.505Z,3.83
2019-05-29T10:42:47.151Z,6.77
2019-05-29T10:45:18.740Z,8.63
2019-05-29T10:47:49.921Z,13.97
2019-05-29T10:50:20.610Z,5.03
2019-05-29T10:52:52.247Z,3.87
2019-05-29T10:55:26.964Z,4.70
2019-05-29T10:58:01.646Z,3.83
2019-05-29T11:00:31.766Z,4.13
2019-05-29T11:03:01.799Z,15.67
2019-05-29T11:05:33.209Z,10.77
2019-05-29T11:08:02.593Z,2.50
2019-05-29T11:10:33.892Z,5.13
2019-05-29T11:13:06.632Z,6.33
2019-05-29T11:15:37.938Z,3.63
2019-05-29T11:18:10.093Z,6.57
2019-05-29T11:20:41.241Z,4.10
2019-05-29T11:23:12.905Z,10.27
2019-05-29T11:25:46.398Z,5.03
2019-05-29T11:28:21.042Z,6.90
2019-05-29T11:30:55.531Z,7.93
2019-05-29T11:33:27.156Z,7.10
2019-05-29T11:36:10.743Z,5.27
2019-05-29T11:38:34.567Z,4.70
2019-05-29T11:41:25.043Z,5.93
2019-05-29T11:43:42.610Z,6.33
2019-05-29T11:46:15.875Z,6.33
2019-05-29T11:48:48.189Z,3.40
2019-05-29T11:53:59.900Z,5.90
2019-05-29T11:56:30.966Z,3.03
2019-05-29T11:59:03.171Z,3.10
2019-05-29T12:01:49.685Z,5.37
2019-05-29T12:04:24.197Z,4.20
2019-05-29T12:06:44.580Z,2.43
2019-05-29T12:09:31.424Z,4.00
2019-05-29T12:11:51.628Z,6.37
2019-05-29T12:14:24.131Z,3.80
2019-05-29T12:16:55.998Z,2.03
2019-05-29T12:19:28.754Z,4.67
2019-05-29T12:22:02.807Z,3.83
2019-05-29T12:24:34.938Z,4.40
2019-05-29T12:27:06.118Z,6.30
2019-05-29T12:29:37.584Z,4.50
2019-05-29T12:32:10.794Z,6.50
2019-05-29T12:35:04.359Z,1.53
2019-05-29T12:37:35.904Z,1.97
2019-05-29T12:40:11.010Z,4.45
2019-05-29T12:42:45.039Z,2.33
2019-05-29T12:45:17.804Z,5.80
2019-05-29T12:47:48.939Z,2.63
2019-05-29T12:50:21.753Z,2.50
2019-05-29T12:52:53.612Z,2.20
2019-05-29T12:55:27.679Z,11.65
2019-05-29T12:58:04.454Z,3.70
2019-05-29T13:00:34.825Z,1.90
2019-05-29T13:03:06.827Z,5.30
2019-05-29T13:05:37.690Z,8.83
2019-05-29T13:08:12.577Z,3.23
2019-05-29T13:10:47.587Z,3.67
2019-05-29T13:16:10.816Z,3.27
2019-05-29T13:18:41.168Z,3.27
2019-05-29T13:21:13.658Z,4.17
2019-05-29T13:23:45.914Z,8.40
2019-05-29T13:26:18.833Z,6.30
2019-05-29T13:28:49.725Z,4.50
2019-05-29T13:31:20.932Z,5.20
2019-05-29T13:33:51.323Z,4.90
2019-05-29T13:36:23.855Z,3.43
2019-05-29T13:38:56.428Z,6.50
2019-05-29T13:41:29.234Z,4.00
2019-05-29T13:44:00.377Z,6.57
2019-05-29T13:46:38.327Z,3.63
2019-05-29T13:49:09.808Z,6.23
2019-05-29T13:51:43.275Z,2.83
2019-05-29T13:54:18.197Z,6.08
2019-05-29T13:56:48.747Z,4.40
2019-05-29T13:59:23.081Z,6.40
2019-05-29T14:01:52.318Z,4.20
2019-05-29T14:04:24.887Z,5.62
2019-05-29T14:06:54.822Z,3.67
2019-05-29T14:09:27.629Z,2.43
2019-05-29T14:12:03.051Z,6.17
2019-05-29T14:17:10.557Z,3.07
2019-05-29T14:22:20.374Z,2.80
2019-05-29T14:24:52.319Z,4.17
2019-05-29T14:27:23.581Z,4.70
2019-05-29T14:29:54.675Z,4.33
2019-05-29T14:32:28.509Z,4.93
2019-05-29T14:35:00.113Z,6.43
2019-05-29T14:37:34.863Z,6.43
2019-05-29T14:40:07.862Z,3.13
2019-05-29T14:42:39.266Z,3.30
2019-05-29T14:45:10.531Z,6.23
2019-05-29T14:47:41.833Z,8.63
2019-05-29T14:50:13.858Z,3.25
2019-05-29T14:52:44.432Z,4.33
2019-05-29T14:55:20.918Z,5.27
2019-05-29T14:57:53.540Z,9.27
2019-05-29T15:00:27.503Z,3.05
2019-05-29T15:02:59.960Z,5.57
2019-05-29T15:05:32.514Z,5.47
2019-05-29T15:08:05.819Z,5.20
2019-05-29T15:10:37.050Z,2.40
2019-05-29T15:13:08.703Z,7.60
2019-05-29T15:15:39.827Z,14.63
2019-05-29T15:18:16.352Z,3.83
2019-05-29T15:20:45.734Z,5.37
2019-05-29T15:23:18.755Z,2.93
2019-05-29T15:25:49.952Z,2.10
2019-05-29T15:28:22.598Z,5.97
2019-05-29T15:30:55.095Z,4.77
2019-05-29T15:33:26.292Z,4.77
2019-05-29T15:36:00.542Z,3.93
2019-05-29T15:38:32.306Z,4.77
2019-05-29T15:41:04.617Z,2.90
2019-05-29T15:43:35.724Z,4.17
2019-05-29T15:46:12.166Z,2.93
2019-05-29T15:48:47.414Z,4.07
2019-05-29T15:51:21.895Z,2.33
2019-05-29T15:53:54.402Z,5.77
2019-05-29T15:56:27.740Z,3.17
2019-05-29T15:59:00.731Z,3.57
2019-05-29T16:01:33.270Z,6.50
2019-05-29T16:04:04.818Z,4.47
2019-05-29T16:06:37.538Z,5.30
2019-05-29T16:09:16.314Z,3.70
2019-05-29T16:11:46.466Z,3.03
2019-05-29T16:14:16.813Z,5.37
2019-05-29T16:16:49.314Z,4.63
2019-05-29T16:19:22.582Z,8.23
2019-05-29T16:21:52.721Z,2.80
2019-05-29T16:24:23.704Z,6.17
2019-05-29T16:27:08.345Z,2.37
2019-05-29T16:29:31.218Z,5.03
2019-05-29T16:32:02.889Z,3.77
2019-05-29T16:34:34.337Z,2.77
2019-05-29T16:37:05.349Z,3.30
2019-05-29T16:39:36.880Z,4.03
2019-05-29T16:42:08.113Z,2.60
2019-05-29T16:44:39.551Z,2.47
2019-05-29T16:47:12.562Z,2.37
2019-05-29T16:49:43.795Z,2.40
2019-05-29T16:52:14.887Z,4.70
2019-05-29T16:54:48.896Z,4.20
2019-05-29T16:57:21.207Z,4.23
2019-05-29T16:59:52.325Z,2.23
2019-05-29T17:02:25.069Z,3.85
2019-05-29T17:04:58.353Z,22.57
2019-05-29T17:07:29.241Z,2.27
2019-05-29T17:10:00.519Z,8.53
2019-05-29T17:12:33.295Z,12.33
2019-05-29T17:15:03.183Z,2.73
2019-05-29T17:17:35.401Z,5.57
2019-05-29T17:20:11.689Z,3.85
2019-05-29T17:22:41.493Z,3.73
2019-05-29T17:25:14.799Z,7.03
2019-05-29T17:27:48.562Z,4.47
2019-05-29T17:30:23.094Z,7.80
2019-05-29T17:32:55.415Z,8.97
2019-05-29T17:35:26.552Z,3.30
2019-05-29T17:37:58.080Z,5.77
2019-05-29T17:40:30.474Z,6.27
2019-05-29T17:43:00.266Z,3.47
2019-05-29T17:45:30.431Z,3.63
2019-05-29T17:48:02.951Z,5.33
2019-05-29T17:50:35.628Z,4.60
2019-05-29T17:53:07.626Z,3.27
2019-05-29T17:55:38.522Z,4.87
2019-05-29T17:58:09.880Z,4.50
2019-05-29T18:00:44.351Z,5.90
2019-05-29T18:03:16.028Z,4.00
2019-05-29T18:05:46.071Z,4.70
2019-05-29T18:08:18.583Z,2.83
2019-05-29T18:10:49.985Z,5.17
2019-05-29T18:13:21.447Z,5.03
2019-05-29T18:15:52.258Z,6.73
2019-05-29T18:18:23.574Z,10.07
2019-05-29T18:20:54.174Z,7.07
2019-05-29T18:23:26.201Z,6.87
2019-05-29T18:26:00.257Z,8.53
2019-05-29T18:28:32.527Z,5.70
2019-05-29T18:31:03.521Z,6.37
2019-05-29T18:33:33.395Z,7.07
2019-05-29T18:36:07.132Z,6.03
2019-05-29T18:38:39.728Z,4.63
2019-05-29T18:41:12.016Z,5.70
2019-05-29T18:43:43.069Z,4.37
2019-05-29T18:46:37.528Z,3.67
2019-05-29T18:49:07.483Z,3.07
2019-05-29T18:51:41.276Z,5.10
2019-05-29T18:54:15.838Z,4.87
2019-05-29T18:57:13.289Z,4.20
2019-05-29T18:59:23.383Z,3.58
2019-05-29T19:01:56.295Z,4.97
2019-05-29T19:04:35.852Z,4.50
2019-05-29T19:07:06.135Z,3.43
2019-05-29T19:09:37.004Z,4.23
2019-05-29T19:12:30.066Z,4.10
2019-05-29T19:15:00.967Z,4.87
2019-05-29T19:17:33.292Z,7.23
2019-05-29T19:20:04.073Z,5.17
2019-05-29T19:22:37.111Z,6.00
2019-05-29T19:25:11.674Z,3.50
2019-05-29T19:27:44.339Z,5.00
2019-05-29T19:30:17.295Z,4.40
2019-05-29T19:32:57.036Z,4.90
2019-05-29T19:35:29.636Z,4.10
2019-05-29T19:37:59.642Z,4.70
2019-05-29T19:40:32.175Z,7.20
2019-05-29T19:43:04.930Z,4.03
2019-05-29T19:45:36.175Z,5.17
2019-05-29T19:48:07.422Z,7.37
2019-05-29T19:50:41.566Z,5.23
2019-05-29T19:53:12.555Z,5.17
2019-05-29T19:55:43.909Z,8.37
2019-05-29T19:58:16.199Z,6.60
2019-05-29T20:00:47.503Z,6.60
2019-05-29T20:03:20.190Z,3.83
2019-05-29T20:05:52.809Z,7.43
2019-05-29T20:08:23.862Z,5.07
2019-05-29T20:10:58.178Z,6.00
2019-05-29T20:13:29.789Z,5.50
2019-05-29T20:16:04.678Z,6.27
2019-05-29T20:18:38.369Z,5.67
2019-05-29T20:21:12.789Z,8.30
2019-05-29T20:23:45.503Z,9.67
2019-05-29T20:26:39.820Z,7.93
2019-05-29T20:29:23.104Z,5.46
2019-05-29T20:31:53.085Z,8.07
2019-05-29T20:34:24.191Z,7.07
2019-05-29T20:36:57.278Z,8.50
2019-05-29T20:39:27.254Z,8.40
2019-05-29T20:41:58.521Z,10.27
2019-05-29T20:44:30.616Z,12.67
2019-05-29T20:47:02.056Z,10.87
2019-05-29T20:49:34.472Z,10.30
2019-05-29T20:52:05.947Z,9.67
2019-05-29T20:54:40.205Z,7.03
2019-05-29T20:57:13.976Z,8.67
2019-05-29T20:59:45.324Z,6.70
2019-05-29T21:02:16.404Z,6.73
2019-05-29T21:04:46.337Z,6.63
2019-05-29T21:07:17.725Z,10.87
2019-05-29T21:09:50.090Z,8.00
2019-05-29T21:12:24.575Z,8.13
2019-05-29T21:14:56.943Z,10.83
2019-05-29T21:17:28.241Z,9.50
2019-05-29T21:20:01.343Z,7.20
2019-05-29T21:22:32.336Z,6.23
2019-05-29T21:25:07.257Z,6.63
2019-05-29T21:27:35.080Z,7.30
2019-05-29T21:30:08.140Z,5.63
2019-05-29T21:32:41.930Z,6.57
2019-05-29T21:35:17.525Z,5.17
2019-05-29T21:37:50.578Z,5.97
2019-05-29T21:40:24.468Z,5.47
2019-05-29T21:42:57.150Z,6.33
2019-05-29T21:45:29.687Z,11.80
2019-05-29T21:48:01.688Z,8.33
2019-05-29T21:50:33.960Z,7.27
2019-05-29T21:53:05.404Z,5.63
2019-05-29T21:55:34.812Z,6.53
2019-05-29T21:58:05.817Z,5.57
2019-05-29T22:00:44.589Z,6.20
2019-05-29T22:05:48.859Z,5.83
2019-05-29T22:08:20.189Z,7.07
2019-05-29T22:10:53.417Z,9.10
2019-05-29T22:13:25.634Z,6.20
2019-05-29T22:15:56.882Z,6.47
2019-05-29T22:18:28.090Z,6.60
2019-05-29T22:21:00.258Z,8.33
2019-05-29T22:23:31.802Z,6.00
2019-05-29T22:26:04.900Z,5.60
2019-05-29T22:28:36.048Z,8.73
2019-05-29T22:31:07.896Z,8.10
2019-05-29T22:33:39.479Z,4.47
2019-05-29T22:36:13.896Z,4.37
2019-05-29T22:38:44.852Z,5.30
2019-05-29T22:41:15.690Z,7.20
2019-05-29T22:43:47.929Z,6.13
2019-05-29T22:46:20.759Z,7.33
2019-05-29T22:48:55.882Z,9.87
2019-05-29T22:51:27.104Z,6.47
2019-05-29T22:53:58.063Z,4.83
2019-05-29T22:56:30.296Z,5.23
2019-05-29T22:59:03.080Z,10.90
2019-05-29T23:01:32.433Z,7.17
2019-05-29T23:04:07.159Z,5.87
2019-05-29T23:06:39.676Z,5.50
2019-05-29T23:09:11.026Z,7.90
2019-05-29T23:11:43.252Z,7.47
2019-05-29T23:14:14.373Z,4.80
2019-05-29T23:19:17.279Z,4.63
2019-05-29T23:21:48.689Z,6.93
2019-05-29T23:24:21.806Z,7.33
2019-05-29T23:26:54.973Z,8.97
2019-05-29T23:29:26.485Z,6.47
2019-05-29T23:31:58.833Z,11.50
2019-05-29T23:34:30.300Z,5.00
2019-05-29T23:37:03.358Z,8.27
2019-05-29T23:39:34.979Z,8.57
2019-05-29T23:44:39.055Z,5.80
2019-05-29T23:47:11.448Z,5.57
2019-05-29T23:49:42.420Z,4.73
2019-05-29T23:52:14.824Z,6.47
2019-05-29T23:54:45.911Z,5.97
2019-05-29T23:57:17.091Z,8.37
